sensor_id;sensor_type;location;lat;lon;timestamp;temperature;humidity
39655;DHT22;25336;59.944;11.010;2023-10-09T00:01:04;4.70;59.40
39655;DHT22;25336;59.944;11.010;2023-10-09T00:03:42;4.70;60.00
39655;DHT22;25336;59.944;11.010;2023-10-09T00:06:09;4.70;60.10
39655;DHT22;25336;59.944;11.010;2023-10-09T00:08:41;4.00;59.60
39655;DHT22;25336;59.944;11.010;2023-10-09T00:11:10;4.60;60.00
39655;DHT22;25336;59.944;11.010;2023-10-09T00:13:44;4.60;60.00
39655;DHT22;25336;59.944;11.010;2023-10-09T00:16:19;4.60;60.00
39655;DHT22;25336;59.944;11.010;2023-10-09T00:19:12;4.50;60.10
39655;DHT22;25336;59.944;11.010;2023-10-09T00:21:56;4.50;60.20
39655;DHT22;25336;59.944;11.010;2023-10-09T00:24:24;4.50;60.40
39655;DHT22;25336;59.944;11.010;2023-10-09T00:26:54;4.50;60.50
39655;DHT22;25336;59.944;11.010;2023-10-09T00:29:36;4.40;60.70
39655;DHT22;25336;59.944;11.010;2023-10-09T00:32:07;4.40;60.40
39655;DHT22;25336;59.944;11.010;2023-10-09T00:34:41;4.40;61.00
39655;DHT22;25336;59.944;11.010;2023-10-09T00:37:09;4.30;60.10
39655;DHT22;25336;59.944;11.010;2023-10-09T00:39:55;4.30;60.20
39655;DHT22;25336;59.944;11.010;2023-10-09T00:42:23;4.20;60.10
39655;DHT22;25336;59.944;11.010;2023-10-09T00:44:57;4.20;61.00
39655;DHT22;25336;59.944;11.010;2023-10-09T00:47:31;4.20;59.70
39655;DHT22;25336;59.944;11.010;2023-10-09T00:50:08;4.10;59.90
39655;DHT22;25336;59.944;11.010;2023-10-09T00:52:49;4.00;60.30
39655;DHT22;25336;59.944;11.010;2023-10-09T00:55:20;4.00;60.20
39655;DHT22;25336;59.944;11.010;2023-10-09T00:58:06;3.90;60.10
39655;DHT22;25336;59.944;11.010;2023-10-09T01:00:38;3.90;60.00
39655;DHT22;25336;59.944;11.010;2023-10-09T01:03:11;4.50;60.60
39655;DHT22;25336;59.944;11.010;2023-10-09T01:05:44;3.80;60.50
39655;DHT22;25336;59.944;11.010;2023-10-09T01:08:29;3.70;60.60
39655;DHT22;25336;59.944;11.010;2023-10-09T01:11:11;3.70;60.60
39655;DHT22;25336;59.944;11.010;2023-10-09T01:13:45;3.70;60.70
39655;DHT22;25336;59.944;11.010;2023-10-09T01:16:14;3.60;60.70
39655;DHT22;25336;59.944;11.010;2023-10-09T01:18:44;3.60;60.80
39655;DHT22;25336;59.944;11.010;2023-10-09T01:21:11;3.60;61.10
39655;DHT22;25336;59.944;11.010;2023-10-09T01:23:44;3.60;61.10
39655;DHT22;25336;59.944;11.010;2023-10-09T01:26:33;3.50;61.30
39655;DHT22;25336;59.944;11.010;2023-10-09T01:29:22;3.50;61.20
39655;DHT22;25336;59.944;11.010;2023-10-09T01:31:49;3.40;61.10
39655;DHT22;25336;59.944;11.010;2023-10-09T01:34:22;3.40;61.10
39655;DHT22;25336;59.944;11.010;2023-10-09T01:37:14;3.40;61.10
39655;DHT22;25336;59.944;11.010;2023-10-09T01:39:58;3.30;61.20
39655;DHT22;25336;59.944;11.010;2023-10-09T01:42:25;3.30;61.10
39655;DHT22;25336;59.944;11.010;2023-10-09T01:45:11;3.20;61.30
39655;DHT22;25336;59.944;11.010;2023-10-09T01:47:38;3.20;61.40
39655;DHT22;25336;59.944;11.010;2023-10-09T01:50:07;3.10;61.50
39655;DHT22;25336;59.944;11.010;2023-10-09T01:52:45;3.10;61.80
39655;DHT22;25336;59.944;11.010;2023-10-09T01:55:11;3.10;61.80
39655;DHT22;25336;59.944;11.010;2023-10-09T01:58:01;3.00;62.00
39655;DHT22;25336;59.944;11.010;2023-10-09T02:00:53;3.10;62.10
39655;DHT22;25336;59.944;11.010;2023-10-09T02:03:27;3.00;62.20
39655;DHT22;25336;59.944;11.010;2023-10-09T02:05:55;4.20;63.00
39655;DHT22;25336;59.944;11.010;2023-10-09T02:08:28;3.00;62.40
39655;DHT22;25336;59.944;11.010;2023-10-09T02:10:56;3.00;62.30
39655;DHT22;25336;59.944;11.010;2023-10-09T02:13:22;3.00;62.30
39655;DHT22;25336;59.944;11.010;2023-10-09T02:16:01;3.00;62.30
39655;DHT22;25336;59.944;11.010;2023-10-09T02:18:40;2.90;62.10
39655;DHT22;25336;59.944;11.010;2023-10-09T02:21:18;2.90;62.20
39655;DHT22;25336;59.944;11.010;2023-10-09T02:23:54;2.90;62.00
39655;DHT22;25336;59.944;11.010;2023-10-09T02:26:22;2.90;62.10
39655;DHT22;25336;59.944;11.010;2023-10-09T02:28:55;1.90;61.30
39655;DHT22;25336;59.944;11.010;2023-10-09T02:31:25;2.80;61.80
39655;DHT22;25336;59.944;11.010;2023-10-09T02:33:53;2.80;61.70
39655;DHT22;25336;59.944;11.010;2023-10-09T02:36:21;2.70;61.80
39655;DHT22;25336;59.944;11.010;2023-10-09T02:38:47;2.70;61.90
39655;DHT22;25336;59.944;11.010;2023-10-09T02:41:15;2.70;61.90
39655;DHT22;25336;59.944;11.010;2023-10-09T02:43:41;2.70;62.00
39655;DHT22;25336;59.944;11.010;2023-10-09T02:46:19;2.60;62.10
39655;DHT22;25336;59.944;11.010;2023-10-09T02:48:49;2.70;62.30
39655;DHT22;25336;59.944;11.010;2023-10-09T02:51:19;2.60;62.10
39655;DHT22;25336;59.944;11.010;2023-10-09T02:54:02;3.10;62.40
39655;DHT22;25336;59.944;11.010;2023-10-09T02:56:47;2.50;62.00
39655;DHT22;25336;59.944;11.010;2023-10-09T02:59:20;2.60;62.10
39655;DHT22;25336;59.944;11.010;2023-10-09T03:01:48;3.70;62.80
39655;DHT22;25336;59.944;11.010;2023-10-09T03:04:14;2.50;62.20
39655;DHT22;25336;59.944;11.010;2023-10-09T03:06:41;2.90;62.50
39655;DHT22;25336;59.944;11.010;2023-10-09T03:09:18;2.50;62.30
39655;DHT22;25336;59.944;11.010;2023-10-09T03:11:53;2.50;62.60
39655;DHT22;25336;59.944;11.010;2023-10-09T03:14:22;2.50;62.60
39655;DHT22;25336;59.944;11.010;2023-10-09T03:16:58;2.50;62.60
39655;DHT22;25336;59.944;11.010;2023-10-09T03:19:29;2.50;62.70
39655;DHT22;25336;59.944;11.010;2023-10-09T03:21:55;2.50;62.60
39655;DHT22;25336;59.944;11.010;2023-10-09T03:24:24;2.50;62.60
39655;DHT22;25336;59.944;11.010;2023-10-09T03:26:49;2.50;62.40
39655;DHT22;25336;59.944;11.010;2023-10-09T03:29:15;3.00;62.80
39655;DHT22;25336;59.944;11.010;2023-10-09T03:31:44;2.50;62.50
39655;DHT22;25336;59.944;11.010;2023-10-09T03:34:12;2.50;62.50
39655;DHT22;25336;59.944;11.010;2023-10-09T03:36:37;2.50;62.50
39655;DHT22;25336;59.944;11.010;2023-10-09T03:39:05;2.50;62.60
39655;DHT22;25336;59.944;11.010;2023-10-09T03:41:50;2.50;62.60
39655;DHT22;25336;59.944;11.010;2023-10-09T03:44:16;2.40;62.70
39655;DHT22;25336;59.944;11.010;2023-10-09T03:46:44;2.90;63.00
39655;DHT22;25336;59.944;11.010;2023-10-09T03:49:10;2.40;62.80
39655;DHT22;25336;59.944;11.010;2023-10-09T03:51:41;2.40;63.00
39655;DHT22;25336;59.944;11.010;2023-10-09T03:54:08;2.40;63.20
39655;DHT22;25336;59.944;11.010;2023-10-09T03:56:34;2.40;63.30
39655;DHT22;25336;59.944;11.010;2023-10-09T03:59:00;3.50;64.10
39655;DHT22;25336;59.944;11.010;2023-10-09T04:01:27;2.40;63.40
39655;DHT22;25336;59.944;11.010;2023-10-09T04:04:03;2.40;63.40
39655;DHT22;25336;59.944;11.010;2023-10-09T04:06:31;2.50;63.40
39655;DHT22;25336;59.944;11.010;2023-10-09T04:09:03;2.50;63.30
39655;DHT22;25336;59.944;11.010;2023-10-09T04:11:47;2.50;63.30
39655;DHT22;25336;59.944;11.010;2023-10-09T04:14:15;2.50;63.10
39655;DHT22;25336;59.944;11.010;2023-10-09T04:16:49;2.50;63.00
39655;DHT22;25336;59.944;11.010;2023-10-09T04:19:29;3.70;63.80
39655;DHT22;25336;59.944;11.010;2023-10-09T04:21:55;2.90;63.20
39655;DHT22;25336;59.944;11.010;2023-10-09T04:24:24;2.50;62.90
39655;DHT22;25336;59.944;11.010;2023-10-09T04:26:50;2.50;62.80
39655;DHT22;25336;59.944;11.010;2023-10-09T04:29:22;2.50;62.80
39655;DHT22;25336;59.944;11.010;2023-10-09T04:32:02;2.50;62.80
39655;DHT22;25336;59.944;11.010;2023-10-09T04:34:33;1.70;64.10
39655;DHT22;25336;59.944;11.010;2023-10-09T04:37:07;2.60;62.50
39655;DHT22;25336;59.944;11.010;2023-10-09T04:39:38;2.40;62.30
39655;DHT22;25336;59.944;11.010;2023-10-09T04:42:14;2.40;62.40
39655;DHT22;25336;59.944;11.010;2023-10-09T04:45:05;2.30;62.40
39655;DHT22;25336;59.944;11.010;2023-10-09T04:47:35;2.30;62.50
39655;DHT22;25336;59.944;11.010;2023-10-09T04:50:15;2.20;62.50
39655;DHT22;25336;59.944;11.010;2023-10-09T04:52:43;2.70;62.80
39655;DHT22;25336;59.944;11.010;2023-10-09T04:55:09;2.20;62.50
39655;DHT22;25336;59.944;11.010;2023-10-09T04:57:45;2.80;62.80
39655;DHT22;25336;59.944;11.010;2023-10-09T05:00:13;2.10;62.60
39655;DHT22;25336;59.944;11.010;2023-10-09T05:02:58;2.10;62.50
39655;DHT22;25336;59.944;11.010;2023-10-09T05:05:30;2.10;62.70
39655;DHT22;25336;59.944;11.010;2023-10-09T05:08:16;2.80;63.20
39655;DHT22;25336;59.944;11.010;2023-10-09T05:10:51;2.70;63.30
39655;DHT22;25336;59.944;11.010;2023-10-09T05:13:31;2.00;62.80
39655;DHT22;25336;59.944;11.010;2023-10-09T05:16:06;1.70;62.50
39655;DHT22;25336;59.944;11.010;2023-10-09T05:18:39;2.80;63.10
39655;DHT22;25336;59.944;11.010;2023-10-09T05:21:08;1.90;62.50
39655;DHT22;25336;59.944;11.010;2023-10-09T05:23:53;1.90;62.70
39655;DHT22;25336;59.944;11.010;2023-10-09T05:26:50;1.90;62.80
39655;DHT22;25336;59.944;11.010;2023-10-09T05:29:18;2.40;63.40
39655;DHT22;25336;59.944;11.010;2023-10-09T05:32:06;1.90;62.90
39655;DHT22;25336;59.944;11.010;2023-10-09T05:34:38;1.80;63.30
39655;DHT22;25336;59.944;11.010;2023-10-09T05:37:23;1.80;63.10
39655;DHT22;25336;59.944;11.010;2023-10-09T05:39:59;2.90;63.90
39655;DHT22;25336;59.944;11.010;2023-10-09T05:42:31;1.80;63.30
39655;DHT22;25336;59.944;11.010;2023-10-09T05:45:04;1.80;63.30
39655;DHT22;25336;59.944;11.010;2023-10-09T05:47:50;1.80;63.20
39655;DHT22;25336;59.944;11.010;2023-10-09T05:50:20;2.00;63.30
39655;DHT22;25336;59.944;11.010;2023-10-09T05:52:57;1.30;63.00
39655;DHT22;25336;59.944;11.010;2023-10-09T05:55:42;1.70;63.40
39655;DHT22;25336;59.944;11.010;2023-10-09T05:58:26;1.80;63.70
39655;DHT22;25336;59.944;11.010;2023-10-09T06:01:10;2.50;64.30
39655;DHT22;25336;59.944;11.010;2023-10-09T06:03:54;1.70;63.80
39655;DHT22;25336;59.944;11.010;2023-10-09T06:06:21;1.80;63.90
39655;DHT22;25336;59.944;11.010;2023-10-09T06:09:03;1.70;63.50
39655;DHT22;25336;59.944;11.010;2023-10-09T06:11:45;2.60;64.00
39655;DHT22;25336;59.944;11.010;2023-10-09T06:14:24;1.60;63.30
39655;DHT22;25336;59.944;11.010;2023-10-09T06:16:57;1.60;63.40
39655;DHT22;25336;59.944;11.010;2023-10-09T06:19:24;2.10;63.80
39655;DHT22;25336;59.944;11.010;2023-10-09T06:22:06;1.60;63.70
39655;DHT22;25336;59.944;11.010;2023-10-09T06:24:38;1.60;63.80
39655;DHT22;25336;59.944;11.010;2023-10-09T06:27:08;2.80;64.70
39655;DHT22;25336;59.944;11.010;2023-10-09T06:29:38;1.60;63.80
39655;DHT22;25336;59.944;11.010;2023-10-09T06:32:19;1.60;63.70
39655;DHT22;25336;59.944;11.010;2023-10-09T06:34:46;1.60;63.70
39655;DHT22;25336;59.944;11.010;2023-10-09T06:37:17;1.60;63.80
39655;DHT22;25336;59.944;11.010;2023-10-09T06:39:53;1.60;63.80
39655;DHT22;25336;59.944;11.010;2023-10-09T06:42:23;1.60;64.10
39655;DHT22;25336;59.944;11.010;2023-10-09T06:45:06;1.60;64.20
39655;DHT22;25336;59.944;11.010;2023-10-09T06:47:34;1.60;64.50
39655;DHT22;25336;59.944;11.010;2023-10-09T06:52:46;1.60;64.50
39655;DHT22;25336;59.944;11.010;2023-10-09T06:55:50;2.70;65.30
39655;DHT22;25336;59.944;11.010;2023-10-09T06:58:30;2.80;65.20
39655;DHT22;25336;59.944;11.010;2023-10-09T07:01:07;2.00;64.80
39655;DHT22;25336;59.944;11.010;2023-10-09T07:03:55;1.70;64.70
39655;DHT22;25336;59.944;11.010;2023-10-09T07:06:25;1.70;65.00
39655;DHT22;25336;59.944;11.010;2023-10-09T07:09:00;1.80;66.10
39655;DHT22;25336;59.944;11.010;2023-10-09T07:11:36;1.80;64.70
39655;DHT22;25336;59.944;11.010;2023-10-09T07:14:17;1.90;64.90
39655;DHT22;25336;59.944;11.010;2023-10-09T07:17:05;1.90;65.30
39655;DHT22;25336;59.944;11.010;2023-10-09T07:19:51;2.00;65.50
39655;DHT22;25336;59.944;11.010;2023-10-09T07:22:20;2.00;65.50
39655;DHT22;25336;59.944;11.010;2023-10-09T07:24:48;2.60;66.00
39655;DHT22;25336;59.944;11.010;2023-10-09T07:27:37;2.10;65.90
39655;DHT22;25336;59.944;11.010;2023-10-09T07:30:21;2.50;66.10
39655;DHT22;25336;59.944;11.010;2023-10-09T07:35:32;1.90;65.90
39655;DHT22;25336;59.944;11.010;2023-10-09T07:38:18;2.40;66.00
39655;DHT22;25336;59.944;11.010;2023-10-09T07:40:48;2.50;66.30
39655;DHT22;25336;59.944;11.010;2023-10-09T07:43:36;2.60;66.30
39655;DHT22;25336;59.944;11.010;2023-10-09T07:46:05;2.60;66.40
39655;DHT22;25336;59.944;11.010;2023-10-09T07:48:50;2.60;66.30
39655;DHT22;25336;59.944;11.010;2023-10-09T07:51:22;3.60;66.90
39655;DHT22;25336;59.944;11.010;2023-10-09T07:54:00;2.90;66.60
39655;DHT22;25336;59.944;11.010;2023-10-09T07:56:40;3.00;66.60
39655;DHT22;25336;59.944;11.010;2023-10-09T07:59:12;3.00;66.60
39655;DHT22;25336;59.944;11.010;2023-10-09T08:01:40;3.50;66.90
39655;DHT22;25336;59.944;11.010;2023-10-09T08:04:18;3.20;66.80
39655;DHT22;25336;59.944;11.010;2023-10-09T08:06:46;3.30;66.70
39655;DHT22;25336;59.944;11.010;2023-10-09T08:09:13;3.40;67.50
39655;DHT22;25336;59.944;11.010;2023-10-09T08:11:39;3.50;66.70
39655;DHT22;25336;59.944;11.010;2023-10-09T08:14:08;3.60;66.70
39655;DHT22;25336;59.944;11.010;2023-10-09T08:16:47;3.70;66.70
39655;DHT22;25336;59.944;11.010;2023-10-09T08:19:13;3.80;66.40
39655;DHT22;25336;59.944;11.010;2023-10-09T08:21:57;3.90;66.30
39655;DHT22;25336;59.944;11.010;2023-10-09T08:24:41;4.00;66.00
39655;DHT22;25336;59.944;11.010;2023-10-09T08:27:08;4.10;65.90
39655;DHT22;25336;59.944;11.010;2023-10-09T08:29:52;4.30;65.80
39655;DHT22;25336;59.944;11.010;2023-10-09T08:32:38;4.40;65.60
39655;DHT22;25336;59.944;11.010;2023-10-09T08:35:05;4.50;65.40
39655;DHT22;25336;59.944;11.010;2023-10-09T08:37:45;4.60;65.20
39655;DHT22;25336;59.944;11.010;2023-10-09T08:40:14;4.80;65.20
39655;DHT22;25336;59.944;11.010;2023-10-09T08:42:52;4.90;65.10
39655;DHT22;25336;59.944;11.010;2023-10-09T08:45:22;5.00;65.60
39655;DHT22;25336;59.944;11.010;2023-10-09T08:47:56;5.10;64.60
39655;DHT22;25336;59.944;11.010;2023-10-09T08:50:24;5.30;64.40
39655;DHT22;25336;59.944;11.010;2023-10-09T08:52:53;5.40;64.20
39655;DHT22;25336;59.944;11.010;2023-10-09T08:55:20;5.50;64.20
39655;DHT22;25336;59.944;11.010;2023-10-09T08:57:46;5.60;63.70
39655;DHT22;25336;59.944;11.010;2023-10-09T09:00:18;5.70;63.50
39655;DHT22;25336;59.944;11.010;2023-10-09T09:02:50;5.80;63.10
39655;DHT22;25336;59.944;11.010;2023-10-09T09:05:19;6.60;63.20
39655;DHT22;25336;59.944;11.010;2023-10-09T09:07:50;6.10;62.60
39655;DHT22;25336;59.944;11.010;2023-10-09T09:10:27;6.20;62.30
39655;DHT22;25336;59.944;11.010;2023-10-09T09:13:02;6.30;62.00
39655;DHT22;25336;59.944;11.010;2023-10-09T09:15:30;6.40;61.70
39655;DHT22;25336;59.944;11.010;2023-10-09T09:18:05;6.50;61.30
39655;DHT22;25336;59.944;11.010;2023-10-09T09:20:32;6.70;61.10
39655;DHT22;25336;59.944;11.010;2023-10-09T09:23:02;6.70;61.10
39655;DHT22;25336;59.944;11.010;2023-10-09T09:25:45;6.90;61.10
39655;DHT22;25336;59.944;11.010;2023-10-09T09:28:14;7.00;61.00
39655;DHT22;25336;59.944;11.010;2023-10-09T09:30:47;7.10;60.90
39655;DHT22;25336;59.944;11.010;2023-10-09T09:33:26;7.20;60.60
39655;DHT22;25336;59.944;11.010;2023-10-09T09:36:02;8.50;60.70
39655;DHT22;25336;59.944;11.010;2023-10-09T09:38:29;7.40;59.20
39655;DHT22;25336;59.944;11.010;2023-10-09T09:41:08;7.50;59.30
39655;DHT22;25336;59.944;11.010;2023-10-09T09:43:36;7.70;59.10
39655;DHT22;25336;59.944;11.010;2023-10-09T09:46:06;7.80;58.60
39655;DHT22;25336;59.944;11.010;2023-10-09T09:48:42;7.90;58.30
39655;DHT22;25336;59.944;11.010;2023-10-09T09:51:15;7.90;57.90
39655;DHT22;25336;59.944;11.010;2023-10-09T09:53:43;8.90;58.70
39655;DHT22;25336;59.944;11.010;2023-10-09T09:56:14;8.10;58.40
39655;DHT22;25336;59.944;11.010;2023-10-09T09:58:46;8.20;58.40
39655;DHT22;25336;59.944;11.010;2023-10-09T10:01:19;8.20;58.20
39655;DHT22;25336;59.944;11.010;2023-10-09T10:04:03;8.30;58.10
39655;DHT22;25336;59.944;11.010;2023-10-09T10:06:31;8.40;57.70
39655;DHT22;25336;59.944;11.010;2023-10-09T10:08:58;8.40;57.70
39655;DHT22;25336;59.944;11.010;2023-10-09T10:11:44;8.50;57.50
39655;DHT22;25336;59.944;11.010;2023-10-09T10:14:13;8.60;57.00
39655;DHT22;25336;59.944;11.010;2023-10-09T10:17:05;8.60;57.30
39655;DHT22;25336;59.944;11.010;2023-10-09T10:22:29;9.60;57.10
39655;DHT22;25336;59.944;11.010;2023-10-09T10:24:56;8.80;56.70
39655;DHT22;25336;59.944;11.010;2023-10-09T10:27:27;8.80;56.70
39655;DHT22;25336;59.944;11.010;2023-10-09T10:32:54;9.00;56.00
39655;DHT22;25336;59.944;11.010;2023-10-09T10:35:22;9.00;55.60
39655;DHT22;25336;59.944;11.010;2023-10-09T10:41:08;9.20;56.00
39655;DHT22;25336;59.944;11.010;2023-10-09T10:43:36;9.30;55.30
39655;DHT22;25336;59.944;11.010;2023-10-09T10:46:18;9.40;55.20
39655;DHT22;25336;59.944;11.010;2023-10-09T10:49:06;9.50;54.60
39655;DHT22;25336;59.944;11.010;2023-10-09T10:51:48;9.60;54.10
39655;DHT22;25336;59.944;11.010;2023-10-09T10:54:24;9.70;54.60
39655;DHT22;25336;59.944;11.010;2023-10-09T10:57:02;9.80;53.30
39655;DHT22;25336;59.944;11.010;2023-10-09T10:59:39;9.90;53.20
39655;DHT22;25336;59.944;11.010;2023-10-09T11:02:10;10.00;52.20
39655;DHT22;25336;59.944;11.010;2023-10-09T11:04:36;10.00;52.20
39655;DHT22;25336;59.944;11.010;2023-10-09T11:07:02;10.10;52.00
39655;DHT22;25336;59.944;11.010;2023-10-09T11:09:51;10.20;51.80
39655;DHT22;25336;59.944;11.010;2023-10-09T11:12:51;10.30;51.70
39655;DHT22;25336;59.944;11.010;2023-10-09T11:15:32;10.40;52.00
39655;DHT22;25336;59.944;11.010;2023-10-09T11:18:11;10.50;51.50
39655;DHT22;25336;59.944;11.010;2023-10-09T11:20:50;11.40;52.30
39655;DHT22;25336;59.944;11.010;2023-10-09T11:23:28;11.30;52.00
39655;DHT22;25336;59.944;11.010;2023-10-09T11:26:00;10.70;51.70
39655;DHT22;25336;59.944;11.010;2023-10-09T11:29:06;10.80;51.40
39655;DHT22;25336;59.944;11.010;2023-10-09T11:34:23;10.90;50.80
39655;DHT22;25336;59.944;11.010;2023-10-09T11:36:59;11.00;50.70
39655;DHT22;25336;59.944;11.010;2023-10-09T11:39:27;11.10;50.50
39655;DHT22;25336;59.944;11.010;2023-10-09T11:42:18;11.10;50.70
39655;DHT22;25336;59.944;11.010;2023-10-09T11:45:02;11.90;51.20
39655;DHT22;25336;59.944;11.010;2023-10-09T11:47:34;11.40;50.90
39655;DHT22;25336;59.944;11.010;2023-10-09T11:50:01;11.50;50.30
39655;DHT22;25336;59.944;11.010;2023-10-09T11:52:31;11.50;50.30
39655;DHT22;25336;59.944;11.010;2023-10-09T11:55:00;11.60;50.30
39655;DHT22;25336;59.944;11.010;2023-10-09T11:57:26;11.70;50.00
39655;DHT22;25336;59.944;11.010;2023-10-09T11:59:59;11.70;49.30
39655;DHT22;25336;59.944;11.010;2023-10-09T12:02:26;11.80;48.90
39655;DHT22;25336;59.944;11.010;2023-10-09T12:04:52;11.90;48.20
39655;DHT22;25336;59.944;11.010;2023-10-09T12:07:22;11.90;48.10
39655;DHT22;25336;59.944;11.010;2023-10-09T12:09:47;11.90;47.70
39655;DHT22;25336;59.944;11.010;2023-10-09T12:12:14;11.90;47.50
39655;DHT22;25336;59.944;11.010;2023-10-09T12:14:39;12.00;47.30
39655;DHT22;25336;59.944;11.010;2023-10-09T12:17:06;12.00;47.20
39655;DHT22;25336;59.944;11.010;2023-10-09T12:19:38;12.00;47.40
39655;DHT22;25336;59.944;11.010;2023-10-09T12:22:07;12.00;46.80
39655;DHT22;25336;59.944;11.010;2023-10-09T12:24:41;12.40;46.90
39655;DHT22;25336;59.944;11.010;2023-10-09T12:27:09;12.00;46.60
39655;DHT22;25336;59.944;11.010;2023-10-09T12:29:37;12.00;46.50
39655;DHT22;25336;59.944;11.010;2023-10-09T12:32:03;12.00;46.50
39655;DHT22;25336;59.944;11.010;2023-10-09T12:34:29;12.00;46.50
39655;DHT22;25336;59.944;11.010;2023-10-09T12:36:58;11.90;46.40
39655;DHT22;25336;59.944;11.010;2023-10-09T12:39:27;12.40;46.70
39655;DHT22;25336;59.944;11.010;2023-10-09T12:42:02;12.30;46.80
39655;DHT22;25336;59.944;11.010;2023-10-09T12:44:34;11.80;46.70
39655;DHT22;25336;59.944;11.010;2023-10-09T12:47:05;11.90;47.00
39655;DHT22;25336;59.944;11.010;2023-10-09T12:49:31;11.90;46.80
39655;DHT22;25336;59.944;11.010;2023-10-09T12:51:57;11.90;46.70
39655;DHT22;25336;59.944;11.010;2023-10-09T12:54:27;11.90;46.50
39655;DHT22;25336;59.944;11.010;2023-10-09T12:56:53;11.80;46.00
39655;DHT22;25336;59.944;11.010;2023-10-09T12:59:19;11.80;45.60
39655;DHT22;25336;59.944;11.010;2023-10-09T13:01:46;11.80;45.60
39655;DHT22;25336;59.944;11.010;2023-10-09T13:04:18;11.80;45.30
39655;DHT22;25336;59.944;11.010;2023-10-09T13:06:48;11.70;45.20
39655;DHT22;25336;59.944;11.010;2023-10-09T13:09:17;11.70;45.00
39655;DHT22;25336;59.944;11.010;2023-10-09T13:12:01;11.60;44.90
39655;DHT22;25336;59.944;11.010;2023-10-09T13:14:28;11.60;45.10
39655;DHT22;25336;59.944;11.010;2023-10-09T13:16:54;12.20;45.20
39655;DHT22;25336;59.944;11.010;2023-10-09T13:19:20;11.60;45.10
39655;DHT22;25336;59.944;11.010;2023-10-09T13:21:49;11.50;45.00
39655;DHT22;25336;59.944;11.010;2023-10-09T13:24:15;11.50;45.20
39655;DHT22;25336;59.944;11.010;2023-10-09T13:26:42;11.60;45.30
39655;DHT22;25336;59.944;11.010;2023-10-09T13:29:13;11.60;45.10
39655;DHT22;25336;59.944;11.010;2023-10-09T13:31:39;11.60;45.10
39655;DHT22;25336;59.944;11.010;2023-10-09T13:34:12;11.50;45.10
39655;DHT22;25336;59.944;11.010;2023-10-09T13:36:41;11.60;45.10
39655;DHT22;25336;59.944;11.010;2023-10-09T13:39:15;12.20;45.50
39655;DHT22;25336;59.944;11.010;2023-10-09T13:41:54;11.60;45.00
39655;DHT22;25336;59.944;11.010;2023-10-09T13:44:33;11.60;44.80
39655;DHT22;25336;59.944;11.010;2023-10-09T13:47:02;11.60;45.00
39655;DHT22;25336;59.944;11.010;2023-10-09T13:49:31;11.60;45.00
39655;DHT22;25336;59.944;11.010;2023-10-09T13:51:58;12.00;45.40
39655;DHT22;25336;59.944;11.010;2023-10-09T13:54:24;11.60;45.10
39655;DHT22;25336;59.944;11.010;2023-10-09T13:57:00;11.70;45.10
39655;DHT22;25336;59.944;11.010;2023-10-09T13:59:25;11.60;45.10
39655;DHT22;25336;59.944;11.010;2023-10-09T14:01:54;12.40;45.20
39655;DHT22;25336;59.944;11.010;2023-10-09T14:04:21;11.70;44.80
39655;DHT22;25336;59.944;11.010;2023-10-09T14:06:48;11.60;44.50
39655;DHT22;25336;59.944;11.010;2023-10-09T14:09:15;11.80;44.80
39655;DHT22;25336;59.944;11.010;2023-10-09T14:12:01;11.50;44.60
39655;DHT22;25336;59.944;11.010;2023-10-09T14:14:47;11.70;45.00
39655;DHT22;25336;59.944;11.010;2023-10-09T14:17:17;11.50;45.00
39655;DHT22;25336;59.944;11.010;2023-10-09T14:19:51;11.40;45.00
39655;DHT22;25336;59.944;11.010;2023-10-09T14:22:19;11.40;45.20
39655;DHT22;25336;59.944;11.010;2023-10-09T14:24:45;11.50;45.30
39655;DHT22;25336;59.944;11.010;2023-10-09T14:27:15;11.30;45.50
39655;DHT22;25336;59.944;11.010;2023-10-09T14:29:48;11.20;45.60
39655;DHT22;25336;59.944;11.010;2023-10-09T14:32:14;11.30;45.60
39655;DHT22;25336;59.944;11.010;2023-10-09T14:34:43;11.20;45.80
39655;DHT22;25336;59.944;11.010;2023-10-09T14:37:13;11.20;45.90
39655;DHT22;25336;59.944;11.010;2023-10-09T14:39:43;11.20;45.90
39655;DHT22;25336;59.944;11.010;2023-10-09T14:42:14;12.30;46.40
39655;DHT22;25336;59.944;11.010;2023-10-09T14:44:41;12.00;46.40
39655;DHT22;25336;59.944;11.010;2023-10-09T14:47:07;11.10;46.00
39655;DHT22;25336;59.944;11.010;2023-10-09T14:49:33;11.00;46.00
39655;DHT22;25336;59.944;11.010;2023-10-09T14:52:03;11.40;46.20
39655;DHT22;25336;59.944;11.010;2023-10-09T14:54:29;10.90;46.10
39655;DHT22;25336;59.944;11.010;2023-10-09T14:56:54;10.90;46.10
39655;DHT22;25336;59.944;11.010;2023-10-09T14:59:20;10.90;46.20
39655;DHT22;25336;59.944;11.010;2023-10-09T15:01:48;10.80;46.40
39655;DHT22;25336;59.944;11.010;2023-10-09T15:04:19;10.80;46.40
39655;DHT22;25336;59.944;11.010;2023-10-09T15:06:45;10.70;46.50
39655;DHT22;25336;59.944;11.010;2023-10-09T15:09:15;10.70;46.70
39655;DHT22;25336;59.944;11.010;2023-10-09T15:11:55;11.40;47.10
39655;DHT22;25336;59.944;11.010;2023-10-09T15:14:20;10.60;46.90
39655;DHT22;25336;59.944;11.010;2023-10-09T15:16:47;10.60;47.00
39655;DHT22;25336;59.944;11.010;2023-10-09T15:19:14;11.00;47.40
39655;DHT22;25336;59.944;11.010;2023-10-09T15:21:42;9.90;47.10
39655;DHT22;25336;59.944;11.010;2023-10-09T15:24:11;10.60;47.70
39655;DHT22;25336;59.944;11.010;2023-10-09T15:26:46;10.50;47.70
39655;DHT22;25336;59.944;11.010;2023-10-09T15:29:21;10.50;47.80
39655;DHT22;25336;59.944;11.010;2023-10-09T15:31:49;11.10;48.20
39655;DHT22;25336;59.944;11.010;2023-10-09T15:34:18;11.10;48.30
39655;DHT22;25336;59.944;11.010;2023-10-09T15:36:46;11.60;48.70
39655;DHT22;25336;59.944;11.010;2023-10-09T15:39:15;11.20;48.70
39655;DHT22;25336;59.944;11.010;2023-10-09T15:41:45;11.20;48.80
39655;DHT22;25336;59.944;11.010;2023-10-09T15:44:11;10.40;48.60
39655;DHT22;25336;59.944;11.010;2023-10-09T15:46:39;10.40;48.70
39655;DHT22;25336;59.944;11.010;2023-10-09T15:49:05;10.30;48.70
39655;DHT22;25336;59.944;11.010;2023-10-09T15:51:34;10.30;48.90
39655;DHT22;25336;59.944;11.010;2023-10-09T15:54:00;10.30;49.00
39655;DHT22;25336;59.944;11.010;2023-10-09T15:56:26;10.30;49.10
39655;DHT22;25336;59.944;11.010;2023-10-09T15:58:52;10.20;49.10
39655;DHT22;25336;59.944;11.010;2023-10-09T16:01:19;10.70;49.40
39655;DHT22;25336;59.944;11.010;2023-10-09T16:03:46;10.20;49.20
39655;DHT22;25336;59.944;11.010;2023-10-09T16:06:17;10.10;49.30
39655;DHT22;25336;59.944;11.010;2023-10-09T16:08:45;10.00;49.30
39655;DHT22;25336;59.944;11.010;2023-10-09T16:11:18;10.00;49.30
39655;DHT22;25336;59.944;11.010;2023-10-09T16:13:44;9.90;49.40
39655;DHT22;25336;59.944;11.010;2023-10-09T16:16:10;9.80;49.50
39655;DHT22;25336;59.944;11.010;2023-10-09T16:18:38;9.80;49.50